Time;durP1;ratioP1;P1;durP2;ratioP2;P2;SDS_P1;SDS_P2;PMS_P1;PMS_P2;Temp;Humidity;BMP_temperature;BMP_pressure;BME280_temperature;BME280_humidity;BME280_pressure;Samples;Min_cycle;Max_cycle;Signal;HPM_P1;HPM_P2
2024/01/19 00:00:35;;;;;;;44.15;17.92;;;;;;;0.88;75.32;100038.97;10273907;28;20055;-61
2024/01/19 00:05:37;;;;;;;45.53;16.48;;;;;;;0.98;75.03;100044.38;10272137;28;20055;-61
2024/01/19 00:10:38;;;;;;;44.35;16.55;;;;;;;1.16;74.93;100053.47;10273634;28;20087;-61
2024/01/19 00:15:40;;;;;;;33.20;14.20;;;;;;;1.29;74.36;100068.41;10274801;28;20568;-61
2024/01/19 00:20:43;;;;;;;40.38;15.98;;;;;;;1.33;74.83;100070.66;10274437;28;20054;-62
2024/01/19 00:25:45;;;;;;;38.47;15.15;;;;;;;1.18;74.08;100085.13;10276537;28;20122;-62
2024/01/19 00:30:47;;;;;;;40.00;16.02;;;;;;;0.88;75.07;100086.59;10274489;28;20050;-62
2024/01/19 00:35:48;;;;;;;37.65;15.48;;;;;;;0.67;74.13;100104.13;10276443;28;20187;-61
2024/01/19 00:40:50;;;;;;;34.38;15.15;;;;;;;0.54;74.46;100109.53;10275636;28;20780;-60
2024/01/19 00:45:51;;;;;;;37.58;15.00;;;;;;;0.40;73.91;100107.94;10273713;28;20047;-62
2024/01/19 00:50:52;;;;;;;45.22;16.42;;;;;;;0.24;74.01;100110.03;10274058;28;20058;-61
2024/01/19 00:55:54;;;;;;;38.15;16.02;;;;;;;0.21;74.28;100126.16;10274852;28;20154;-61
2024/01/19 01:00:56;;;;;;;36.28;15.07;;;;;;;0.12;74.25;100125.03;10274204;28;20065;-61
2024/01/19 01:06:03;;;;;;;41.00;17.08;;;;;;;-0.02;73.50;100136.63;10274868;28;20054;-62
2024/01/19 01:11:05;;;;;;;27.60;10.50;;;;;;;-0.13;73.72;100140.06;10274083;28;20059;-62
2024/01/19 01:16:07;;;;;;;36.10;14.38;;;;;;;-0.30;72.92;100151.84;10274308;28;20362;-62
2024/01/19 01:21:08;;;;;;;42.13;15.65;;;;;;;-0.41;72.84;100165.84;10273204;28;20061;-61
2024/01/19 01:26:10;;;;;;;36.83;14.43;;;;;;;-0.65;73.14;100186.91;10271915;28;20047;-62
2024/01/19 01:31:11;;;;;;;37.05;14.80;;;;;;;-0.75;73.75;100191.16;10272514;28;20165;-62
2024/01/19 01:36:13;;;;;;;49.38;16.40;;;;;;;-0.83;73.85;100204.88;10274815;28;20058;-62
2024/01/19 01:41:17;;;;;;;38.65;14.45;;;;;;;-0.93;73.71;100218.81;10272091;28;20153;-62
2024/01/19 01:46:18;;;;;;;41.78;15.57;;;;;;;-1.12;73.95;100227.16;10280783;28;20125;-61
2024/01/19 01:51:20;;;;;;;40.42;14.40;;;;;;;-1.19;73.71;100234.63;10281615;28;20053;-61
2024/01/19 01:56:22;;;;;;;44.33;14.75;;;;;;;-1.19;73.38;100245.16;10282832;28;20553;-61
2024/01/19 02:01:23;;;;;;;41.03;14.60;;;;;;;-1.41;73.90;100251.03;10281514;28;20409;-61
2024/01/19 02:06:26;;;;;;;35.63;12.98;;;;;;;-1.45;73.76;100257.44;10279683;28;20058;-61
2024/01/19 02:11:28;;;;;;;37.05;13.88;;;;;;;-1.59;73.08;100258.34;10279579;28;20057;-61
2024/01/19 02:16:29;;;;;;;38.30;15.15;;;;;;;-1.67;73.04;100260.66;10278646;28;20042;-61
2024/01/19 02:21:31;;;;;;;45.60;16.52;;;;;;;-1.76;73.69;100277.88;10278230;28;20065;-61
2024/01/19 02:26:34;;;;;;;43.97;15.10;;;;;;;-1.83;73.39;100284.50;10280951;28;20145;-61
2024/01/19 02:31:36;;;;;;;41.50;15.05;;;;;;;-1.90;73.35;100283.19;10278703;28;20051;-61
2024/01/19 02:36:37;;;;;;;39.83;14.88;;;;;;;-2.00;73.63;100288.22;10279191;28;20046;-62
2024/01/19 02:41:40;;;;;;;43.42;14.75;;;;;;;-2.10;73.28;100281.84;10276066;28;20505;-61
2024/01/19 02:46:41;;;;;;;37.25;13.73;;;;;;;-2.21;73.31;100293.06;10278079;28;20125;-62
2024/01/19 02:51:43;;;;;;;38.10;14.60;;;;;;;-2.32;73.67;100300.75;10275785;28;20074;-61
2024/01/19 02:56:44;;;;;;;35.10;12.07;;;;;;;-2.43;73.38;100301.41;10275813;28;20069;-62
2024/01/19 03:01:45;;;;;;;44.28;13.40;;;;;;;-2.53;73.34;100305.53;10277463;28;20054;-62
2024/01/19 03:06:47;;;;;;;39.15;14.63;;;;;;;-2.63;73.11;100308.75;10280216;28;20038;-62
2024/01/19 03:11:48;;;;;;;34.05;12.40;;;;;;;-2.91;73.34;100317.44;10276246;28;20409;-62
2024/01/19 03:16:51;;;;;;;39.35;14.60;;;;;;;-3.01;73.31;100314.50;10277510;28;20133;-61
2024/01/19 03:21:52;;;;;;;40.78;14.07;;;;;;;-3.08;73.47;100315.81;10278780;28;20054;-61
2024/01/19 03:26:54;;;;;;;44.22;13.52;;;;;;;-3.15;73.13;100330.22;10278518;28;20057;-61
2024/01/19 03:31:55;;;;;;;33.75;13.18;;;;;;;-3.30;73.31;100331.13;10275854;28;20045;-61
2024/01/19 03:37:03;;;;;;;32.50;12.32;;;;;;;-3.32;73.30;100330.34;10275190;28;20042;-61
2024/01/19 03:42:04;;;;;;;38.55;14.10;;;;;;;-3.41;72.72;100340.47;10276321;28;20620;-61
2024/01/19 03:47:06;;;;;;;39.15;12.82;;;;;;;-3.62;73.42;100358.25;10277322;28;20490;-61
2024/01/19 03:52:08;;;;;;;35.88;12.20;;;;;;;-3.63;73.49;100356.59;10275433;28;20046;-61
2024/01/19 03:57:10;;;;;;;33.90;12.60;;;;;;;-3.67;73.27;100360.31;10277304;28;20588;-62
2024/01/19 04:02:11;;;;;;;34.97;12.52;;;;;;;-3.77;73.14;100372.28;10275232;28;20043;-61
2024/01/19 04:07:13;;;;;;;37.70;13.15;;;;;;;-3.88;73.16;100377.25;10275175;28;20054;-61
2024/01/19 04:12:16;;;;;;;34.33;12.05;;;;;;;-4.09;73.03;100377.44;10276135;28;20110;-61
2024/01/19 04:17:18;;;;;;;29.98;10.77;;;;;;;-4.35;73.86;100375.38;10275761;28;20057;-61
2024/01/19 04:22:19;;;;;;;34.10;12.02;;;;;;;-4.35;73.63;100394.56;10275892;28;20672;-61
2024/01/19 04:27:21;;;;;;;31.27;11.13;;;;;;;-4.44;73.56;100402.94;10247117;28;20421;-61
2024/01/19 04:32:22;;;;;;;36.65;13.07;;;;;;;-4.47;73.28;100410.97;10276418;28;20058;-61
2024/01/19 04:37:24;;;;;;;32.63;12.18;;;;;;;-4.52;73.01;100413.81;10274766;28;20051;-63
2024/01/19 04:42:25;;;;;;;32.63;11.93;;;;;;;-4.66;73.45;100422.41;10256205;28;20055;-62
2024/01/19 04:47:27;;;;;;;32.30;12.68;;;;;;;-4.77;73.85;100424.69;10274999;28;20139;-62
2024/01/19 04:52:28;;;;;;;40.05;12.20;;;;;;;-4.65;72.63;100426.69;10273700;28;20047;-61
2024/01/19 04:57:30;;;;;;;32.50;13.05;;;;;;;-4.70;73.16;100427.84;10275181;28;20694;-62
2024/01/19 05:02:32;;;;;;;33.92;12.15;;;;;;;-4.97;73.58;100436.16;10273495;28;20054;-63
2024/01/19 05:07:34;;;;;;;40.25;14.18;;;;;;;-4.92;73.52;100456.91;10276963;28;20043;-63
2024/01/19 05:12:36;;;;;;;34.25;12.52;;;;;;;-4.95;73.39;100451.84;10274746;28;20057;-62
2024/01/19 05:17:37;;;;;;;34.38;12.40;;;;;;;-4.85;73.63;100453.91;10275934;28;20050;-62
2024/01/19 05:22:39;;;;;;;52.20;13.60;;;;;;;-4.74;73.18;100458.63;10281967;28;20062;-63
2024/01/19 05:27:40;;;;;;;116.13;15.52;;;;;;;-4.68;73.27;100460.09;10279544;28;20054;-61
2024/01/19 05:32:41;;;;;;;50.75;13.70;;;;;;;-4.58;73.46;100453.47;10279527;28;20057;-62
2024/01/19 05:37:43;;;;;;;33.53;11.50;;;;;;;-4.41;73.27;100466.56;10280851;28;20047;-61
2024/01/19 05:42:45;;;;;;;37.78;11.40;;;;;;;-4.46;73.33;100476.47;10280003;28;20138;-61
2024/01/19 05:47:46;;;;;;;34.92;11.70;;;;;;;-4.47;73.04;100498.38;10283391;28;20046;-61
2024/01/19 05:52:48;;;;;;;33.78;11.88;;;;;;;-4.57;73.27;100499.75;10281729;28;20074;-61
2024/01/19 05:57:49;;;;;;;35.67;12.10;;;;;;;-4.52;73.07;100504.75;10278574;28;20054;-62
2024/01/19 06:02:50;;;;;;;39.20;13.30;;;;;;;-4.48;72.64;100506.31;10278826;28;20082;-61
2024/01/19 06:07:52;;;;;;;35.63;12.68;;;;;;;-4.59;73.43;100518.19;10278880;28;20139;-61
2024/01/19 06:12:53;;;;;;;45.75;13.40;;;;;;;-4.76;73.33;100533.03;10278451;28;20149;-62
2024/01/19 06:17:55;;;;;;;57.70;14.27;;;;;;;-4.76;73.06;100544.38;10277486;28;20137;-61
2024/01/19 06:22:56;;;;;;;77.43;14.98;;;;;;;-4.94;73.29;100563.59;10275924;28;20498;-61
2024/01/19 06:27:58;;;;;;;39.70;12.90;;;;;;;-5.01;73.25;100579.63;10279672;28;20050;-61
2024/01/19 06:33:01;;;;;;;50.17;11.50;;;;;;;-4.99;72.70;100583.00;10279167;28;20074;-61
2024/01/19 06:38:06;;;;;;;39.58;10.80;;;;;;;-4.98;73.18;100578.63;10279320;28;20053;-62
2024/01/19 06:43:08;;;;;;;45.85;12.48;;;;;;;-4.93;72.85;100602.00;10279746;28;20046;-61
2024/01/19 06:48:09;;;;;;;54.92;14.60;;;;;;;-4.94;72.90;100605.53;10276806;28;20146;-61
2024/01/19 06:53:11;;;;;;;58.17;12.75;;;;;;;-5.08;73.65;100614.88;10276117;28;20133;-70
2024/01/19 06:58:12;;;;;;;31.48;10.95;;;;;;;-4.99;73.14;100621.50;10275371;28;20056;-70
2024/01/19 07:03:13;;;;;;;79.55;12.50;;;;;;;-4.87;73.25;100633.19;10275369;28;20485;-70
2024/01/19 07:08:15;;;;;;;83.32;12.48;;;;;;;-4.80;72.92;100626.72;10279092;28;20066;-71
2024/01/19 07:13:16;;;;;;;58.47;10.82;;;;;;;-4.74;72.76;100641.31;10278306;28;20058;-71
2024/01/19 07:18:18;;;;;;;51.60;15.32;;;;;;;-4.61;72.75;100651.16;10278581;28;20143;-70
2024/01/19 07:23:20;;;;;;;54.00;12.90;;;;;;;-4.42;72.57;100655.56;10277075;28;20082;-71
2024/01/19 07:28:22;;;;;;;54.65;12.93;;;;;;;-4.30;72.80;100662.84;10278440;28;20047;-67
2024/01/19 07:33:24;;;;;;;28.83;10.40;;;;;;;-4.21;72.45;100661.53;10257389;28;20129;-67
2024/01/19 07:38:33;;;;;;;32.67;11.75;;;;;;;-4.08;72.67;100652.16;10275848;28;20579;-69
2024/01/19 07:43:34;;;;;;;34.35;10.70;;;;;;;-4.07;72.05;100667.00;10272082;28;20102;-70
2024/01/19 07:48:36;;;;;;;34.60;11.35;;;;;;;-4.01;72.54;100663.19;10275987;28;20061;-68
2024/01/19 07:53:38;;;;;;;35.22;12.10;;;;;;;-3.68;71.89;100672.97;10272453;28;20057;-69
2024/01/19 07:58:43;;;;;;;39.90;13.95;;;;;;;-3.28;72.17;100673.56;10277979;28;20062;-70
2024/01/19 08:03:45;;;;;;;38.08;14.07;;;;;;;-3.00;71.98;100676.44;10278699;28;20133;-67
2024/01/19 08:08:46;;;;;;;39.80;14.93;;;;;;;-2.89;72.23;100682.91;10281841;28;20126;-70
2024/01/19 08:13:48;;;;;;;48.65;12.57;;;;;;;-2.91;72.38;100700.56;10273711;28;20066;-69
2024/01/19 08:18:49;;;;;;;41.33;13.57;;;;;;;-3.01;72.63;100715.97;10276764;28;20127;-70
2024/01/19 08:23:51;;;;;;;42.42;13.90;;;;;;;-2.89;72.60;100730.25;10274430;28;20046;-70
2024/01/19 08:28:52;;;;;;;45.55;14.05;;;;;;;-2.64;72.46;100737.72;10278576;28;20053;-71
2024/01/19 08:33:54;;;;;;;45.25;13.43;;;;;;;-2.24;72.24;100731.13;10274009;28;20051;-68
2024/01/19 08:38:55;;;;;;;45.00;14.25;;;;;;;-1.92;72.43;100746.06;10275370;28;20469;-70
2024/01/19 08:43:57;;;;;;;38.05;13.23;;;;;;;-1.67;72.39;100745.53;10275531;28;20138;-72
2024/01/19 08:48:58;;;;;;;34.10;12.88;;;;;;;-1.54;72.48;100758.84;10278367;28;20065;-72
2024/01/19 08:54:00;;;;;;;35.75;13.45;;;;;;;-1.48;72.39;100762.00;10282343;28;20059;-71
2024/01/19 08:59:01;;;;;;;34.72;13.13;;;;;;;-1.38;72.31;100767.59;10282613;28;20047;-70
2024/01/19 09:04:03;;;;;;;34.03;12.25;;;;;;;-1.33;72.05;100762.88;10283396;28;20081;-71
2024/01/19 09:09:04;;;;;;;42.70;15.23;;;;;;;-1.10;72.16;100766.81;10284111;28;20051;-70
2024/01/19 09:14:09;;;;;;;41.63;13.38;;;;;;;-1.02;72.24;100769.84;10280791;28;20043;-67
2024/01/19 09:19:13;;;;;;;24.67;8.20;;;;;;;-1.37;71.74;100785.09;10282893;28;20520;-70
2024/01/19 09:24:14;;;;;;;30.75;12.82;;;;;;;-1.54;71.95;100791.34;10280324;28;20055;-70
2024/01/19 09:29:16;;;;;;;32.50;12.93;;;;;;;-1.63;71.93;100812.94;10280433;28;20058;-71
2024/01/19 09:34:18;;;;;;;33.33;13.70;;;;;;;-1.44;72.24;100825.94;10279932;28;20405;-71
2024/01/19 09:39:21;;;;;;;50.40;19.67;;;;;;;-0.94;72.18;100827.44;10279522;28;20082;-67
2024/01/19 09:44:28;;;;;;;41.25;15.40;;;;;;;-0.42;72.04;100831.38;10283079;28;20551;-71
2024/01/19 09:49:54;;;;;;;31.95;14.32;;;;;;;-0.03;71.83;100835.16;10283275;28;20077;-71
2024/01/19 09:54:55;;;;;;;29.70;12.73;;;;;;;0.29;72.09;100854.25;10277989;28;20059;-72
2024/01/19 09:59:56;;;;;;;27.65;12.13;;;;;;;0.44;71.29;100851.59;10281974;28;20403;-71
2024/01/19 10:04:59;;;;;;;27.92;12.63;;;;;;;0.43;71.94;100848.09;10281666;28;20073;-66
2024/01/19 10:10:01;;;;;;;26.90;12.98;;;;;;;0.75;71.27;100850.44;10280611;28;20051;-70
2024/01/19 10:15:05;;;;;;;30.70;14.02;;;;;;;1.21;70.64;100852.69;10265971;28;20057;-72
2024/01/19 10:20:11;;;;;;;32.85;13.80;;;;;;;1.39;71.02;100866.50;10281433;28;20153;-71
2024/01/19 10:25:14;;;;;;;29.90;12.88;;;;;;;1.51;71.47;100881.53;10281065;28;20427;-72
2024/01/19 10:30:24;;;;;;;28.63;13.93;;;;;;;1.71;70.89;100882.00;10280624;28;20401;-72
2024/01/19 10:35:30;;;;;;;33.15;14.68;;;;;;;1.68;70.97;100879.53;10281154;28;20494;-72
2024/01/19 10:40:34;;;;;;;32.00;13.90;;;;;;;2.00;71.06;100895.88;10279753;28;20054;-72
2024/01/19 10:45:35;;;;;;;39.55;16.95;;;;;;;2.20;70.61;100889.16;10279513;28;20057;-71
2024/01/19 10:50:37;;;;;;;31.10;15.25;;;;;;;2.33;70.82;100891.78;10277818;28;20051;-63
2024/01/19 10:55:46;;;;;;;35.97;14.13;;;;;;;2.46;71.04;100881.16;10280971;28;20081;-63
2024/01/19 11:00:48;;;;;;;33.83;13.77;;;;;;;2.53;70.70;100882.41;10274873;28;20119;-65
2024/01/19 11:05:50;;;;;;;34.38;15.82;;;;;;;2.41;70.93;100878.84;10277720;28;20631;-65
2024/01/19 11:10:52;;;;;;;34.90;15.05;;;;;;;2.53;70.91;100887.72;10279735;28;20417;-67
2024/01/19 11:15:59;;;;;;;28.15;13.70;;;;;;;2.77;70.83;100888.56;10278828;28;20051;-65
2024/01/19 11:21:00;;;;;;;29.13;14.18;;;;;;;2.65;71.35;100896.59;10277314;28;20593;-67
2024/01/19 11:26:20;;;;;;;31.08;13.18;;;;;;;2.71;70.90;100901.47;10275562;28;20145;-68
2024/01/19 11:31:26;;;;;;;36.20;11.20;;;;;;;2.86;71.26;100904.78;10275871;28;20058;-64
2024/01/19 11:36:45;;;;;;;30.02;10.38;;;;;;;3.08;70.73;100904.03;10279517;28;20050;-64
2024/01/19 11:41:48;;;;;;;28.95;11.23;;;;;;;3.02;71.15;100908.03;10276696;28;20382;-66
2024/01/19 11:46:50;;;;;;;29.48;12.02;;;;;;;3.31;70.12;100911.16;10274173;28;20113;-64
2024/01/19 11:51:52;;;;;;;23.25;10.55;;;;;;;3.23;71.07;100921.50;10279114;28;20137;-68
2024/01/19 11:57:23;;;;;;;21.77;9.93;;;;;;;3.02;71.47;100923.09;10273925;28;20615;-65
2024/01/19 12:02:30;;;;;;;24.10;10.73;;;;;;;3.05;71.44;100928.19;10280119;28;20737;-65
2024/01/19 12:07:32;;;;;;;;;;;;;;;2.76;72.13;100926.72;10278644;28;20047;-65
2024/01/19 12:12:35;;;;;;;21.73;9.77;;;;;;;2.87;71.67;100931.22;10272704;28;19930;-69
2024/01/19 12:17:40;;;;;;;21.70;10.02;;;;;;;2.60;72.42;100939.38;10276032;28;20046;-72
2024/01/19 12:22:42;;;;;;;22.17;9.05;;;;;;;2.70;71.94;100937.75;10274691;28;20066;-70
2024/01/19 12:27:46;;;;;;;30.30;9.93;;;;;;;2.51;72.11;100935.59;10274179;28;20050;-72
2024/01/19 12:32:47;;;;;;;28.38;10.23;;;;;;;2.73;71.94;100931.41;10273674;28;20143;-72
2024/01/19 12:37:49;;;;;;;26.52;9.50;;;;;;;2.96;71.36;100929.69;10277297;28;20043;-69
2024/01/19 12:42:50;;;;;;;27.45;10.50;;;;;;;3.33;71.06;100914.53;10277245;28;20054;-72
2024/01/19 12:47:52;;;;;;;19.13;8.98;;;;;;;3.60;70.58;100921.41;10279774;28;20050;-67
2024/01/19 12:52:54;;;;;;;26.17;10.13;;;;;;;3.71;70.33;100902.81;10275123;28;20047;-73
2024/01/19 12:57:55;;;;;;;18.35;8.88;;;;;;;3.85;70.19;100890.25;10277905;28;20049;-71
2024/01/19 13:02:59;;;;;;;17.17;7.82;;;;;;;3.65;70.82;100897.94;10278723;28;20053;-70
2024/01/19 13:08:03;;;;;;;19.15;8.32;;;;;;;3.79;70.79;100888.91;10283121;28;20047;-70
2024/01/19 13:13:17;;;;;;;23.17;7.45;;;;;;;3.59;71.26;100903.75;10282033;28;20054;-72
2024/01/19 13:18:22;;;;;;;24.63;9.02;;;;;;;3.87;70.97;100907.81;10279330;28;20062;-67
2024/01/19 13:23:24;;;;;;;22.20;8.88;;;;;;;3.88;71.20;100914.81;10279328;28;20051;-71
2024/01/19 13:28:25;;;;;;;21.90;7.80;;;;;;;3.95;70.92;100921.34;10277751;28;20049;-72
2024/01/19 13:33:27;;;;;;;17.85;7.28;;;;;;;3.72;71.16;100920.47;10277314;28;20457;-71
2024/01/19 13:38:28;;;;;;;18.55;8.05;;;;;;;3.76;70.88;100939.69;10279904;28;20059;-72
2024/01/19 13:43:30;;;;;;;19.60;8.45;;;;;;;3.77;71.27;100947.56;10289440;28;20054;-74
2024/01/19 13:48:31;;;;;;;22.50;9.25;;;;;;;3.95;71.08;100949.78;10287269;28;20057;-74
2024/01/19 13:53:33;;;;;;;19.42;8.23;;;;;;;4.16;70.56;100949.91;10269351;28;20050;-73
2024/01/19 13:58:36;;;;;;;17.85;7.68;;;;;;;4.20;70.37;100962.00;10274136;28;20065;-72
2024/01/19 14:03:38;;;;;;;15.88;8.00;;;;;;;4.52;69.63;100954.16;10282170;28;20453;-71
2024/01/19 14:08:42;;;;;;;17.35;8.00;;;;;;;4.68;69.64;100951.13;10287596;28;20451;-73
2024/01/19 14:13:44;;;;;;;21.48;8.73;;;;;;;4.72;69.69;100970.34;10286655;28;20074;-73
2024/01/19 14:18:46;;;;;;;24.10;9.57;;;;;;;4.51;70.49;100973.75;10285327;28;20510;-73
2024/01/19 14:23:47;;;;;;;17.60;8.35;;;;;;;4.48;69.86;100971.34;10266341;28;20063;-67
2024/01/19 14:28:49;;;;;;;18.15;9.10;;;;;;;4.44;70.03;100974.34;10286174;28;20712;-65
2024/01/19 14:33:51;;;;;;;19.65;9.07;;;;;;;4.38;70.24;100967.69;10287216;28;20051;-68
2024/01/19 14:38:52;;;;;;;22.70;10.63;;;;;;;4.53;69.54;100979.78;10279574;28;20049;-67
2024/01/19 14:43:54;;;;;;;20.63;9.20;;;;;;;4.57;69.63;100985.72;10277342;28;20057;-67
2024/01/19 14:48:55;;;;;;;18.40;10.00;;;;;;;4.50;70.36;100987.16;10252217;28;20046;-65
2024/01/19 14:53:58;;;;;;;23.02;9.65;;;;;;;4.46;70.21;100994.53;10279186;28;20050;-66
2024/01/19 14:59:00;;;;;;;21.15;8.63;;;;;;;4.21;70.24;100998.28;10278322;28;20410;-67
2024/01/19 15:04:02;;;;;;;23.92;10.20;;;;;;;4.08;70.36;101008.19;10275666;28;20059;-67
2024/01/19 15:09:03;;;;;;;25.55;9.52;;;;;;;3.97;71.04;101017.84;10278323;28;20105;-66
2024/01/19 15:14:05;;;;;;;22.58;9.85;;;;;;;3.93;70.41;101027.00;10277697;28;20569;-73
2024/01/19 15:19:06;;;;;;;21.00;9.45;;;;;;;3.69;71.05;101039.47;10276587;28;20082;-72
2024/01/19 15:24:08;;;;;;;18.95;9.43;;;;;;;3.55;70.31;101044.03;10259265;28;20050;-75
2024/01/19 15:29:13;;;;;;;21.83;9.20;;;;;;;3.25;71.09;101062.19;10259523;28;20122;-71
2024/01/19 15:34:15;;;;;;;20.92;8.70;;;;;;;3.03;71.72;101073.53;10281649;28;20502;-71
2024/01/19 15:39:16;;;;;;;26.35;9.70;;;;;;;2.82;71.80;101083.84;10277882;28;20062;-71
2024/01/19 15:44:19;;;;;;;24.60;10.20;;;;;;;2.66;72.31;101100.00;10277605;28;20502;-69
2024/01/19 15:49:21;;;;;;;24.58;9.85;;;;;;;2.62;71.93;101120.59;10273934;28;20046;-73
2024/01/19 15:54:23;;;;;;;21.63;9.30;;;;;;;2.58;72.07;101124.41;10260527;28;20061;-64
2024/01/19 15:59:24;;;;;;;21.67;9.20;;;;;;;2.54;71.56;101134.38;10275584;28;20046;-64
2024/01/19 16:04:26;;;;;;;22.50;9.35;;;;;;;2.46;72.02;101146.47;10272844;28;20067;-64
2024/01/19 16:09:27;;;;;;;20.95;9.57;;;;;;;2.37;72.06;101148.81;10274627;28;20059;-64
2024/01/19 16:14:28;;;;;;;30.20;9.73;;;;;;;2.49;72.13;101167.47;10271355;28;20070;-66
2024/01/19 16:19:30;;;;;;;21.90;8.98;;;;;;;2.58;71.53;101162.41;10275485;28;20049;-65
2024/01/19 16:24:32;;;;;;;25.55;10.05;;;;;;;2.62;71.58;101172.81;10273788;28;20477;-63
2024/01/19 16:29:34;;;;;;;28.77;10.48;;;;;;;2.64;71.69;101186.84;10273987;28;20039;-62
2024/01/19 16:34:36;;;;;;;20.80;9.52;;;;;;;2.69;71.63;101184.75;10272793;28;20051;-64
2024/01/19 16:39:37;;;;;;;26.88;10.02;;;;;;;2.74;71.72;101190.56;10271362;28;20046;-60
2024/01/19 16:44:39;;;;;;;27.33;10.43;;;;;;;2.62;71.94;101191.41;10272709;28;20061;-61
2024/01/19 16:49:40;;;;;;;25.98;10.32;;;;;;;2.48;72.06;101185.22;10274462;28;20114;-62
2024/01/19 16:54:43;;;;;;;26.00;10.30;;;;;;;2.23;72.30;101178.03;10273849;28;20742;-59
2024/01/19 16:59:45;;;;;;;23.92;8.70;;;;;;;1.93;73.20;101183.56;10273722;28;20055;-60
2024/01/19 17:04:46;;;;;;;24.00;9.52;;;;;;;1.73;73.12;101187.50;10273641;28;20055;-59
2024/01/19 17:09:48;;;;;;;23.58;9.93;;;;;;;1.67;73.47;101209.09;10274940;28;20058;-61
2024/01/19 17:14:49;;;;;;;24.73;9.65;;;;;;;1.61;73.21;101198.88;10278382;28;20130;-60
2024/01/19 17:19:51;;;;;;;21.55;9.90;;;;;;;1.53;73.73;101205.50;10283540;28;20061;-60
2024/01/19 17:24:53;;;;;;;26.90;9.25;;;;;;;1.54;73.26;101212.53;10282172;28;20058;-59
2024/01/19 17:29:54;;;;;;;27.10;8.90;;;;;;;1.52;73.52;101216.19;10278434;28;20110;-59
2024/01/19 17:34:56;;;;;;;21.40;8.27;;;;;;;1.48;72.98;101233.22;10279338;28;20062;-58
2024/01/19 17:39:58;;;;;;;28.95;9.32;;;;;;;1.39;73.46;101235.50;10282175;28;20051;-59
2024/01/19 17:44:59;;;;;;;22.25;8.50;;;;;;;1.37;73.84;101252.47;10279907;28;20055;-60
2024/01/19 17:50:16;;;;;;;22.10;9.02;;;;;;;1.38;73.03;101259.44;10280664;28;20693;-60
2024/01/19 17:55:18;;;;;;;26.08;8.57;;;;;;;1.33;73.51;101265.03;10278944;28;20049;-60
2024/01/19 18:00:19;;;;;;;24.48;9.43;;;;;;;1.27;72.84;101264.56;10281100;28;20149;-60
2024/01/19 18:05:21;;;;;;;24.13;8.60;;;;;;;1.07;73.29;101271.06;10280506;28;20050;-60
2024/01/19 18:10:22;;;;;;;21.60;9.27;;;;;;;0.99;73.54;101277.66;10281441;28;20085;-62
2024/01/19 18:15:24;;;;;;;22.90;9.63;;;;;;;0.92;73.83;101283.41;10278226;28;20074;-63
2024/01/19 18:20:26;;;;;;;24.35;9.80;;;;;;;0.82;72.89;101291.03;10279405;28;20046;-60
2024/01/19 18:25:27;;;;;;;22.23;7.82;;;;;;;0.73;73.66;101297.72;10279185;28;20125;-61
2024/01/19 18:30:29;;;;;;;20.27;8.77;;;;;;;0.68;73.36;101301.56;10279566;28;20051;-60
2024/01/19 18:35:30;;;;;;;23.20;8.45;;;;;;;0.59;73.91;101311.75;10278170;28;20110;-60
2024/01/19 18:40:32;;;;;;;22.75;7.85;;;;;;;0.55;73.73;101312.88;10280111;28;20055;-60
2024/01/19 18:45:33;;;;;;;22.00;8.57;;;;;;;0.44;74.05;101325.84;10279043;28;20081;-61
2024/01/19 18:50:35;;;;;;;30.17;10.65;;;;;;;0.37;73.34;101340.34;10280342;28;20558;-62
2024/01/19 18:55:36;;;;;;;24.63;9.50;;;;;;;0.53;73.87;101354.44;10278397;28;20133;-60
2024/01/19 19:00:39;;;;;;;24.60;8.77;;;;;;;0.58;73.33;101362.09;10279524;28;20051;-60
2024/01/19 19:05:40;;;;;;;28.23;10.05;;;;;;;0.56;73.26;101377.19;10280191;28;20130;-60
2024/01/19 19:10:42;;;;;;;29.15;9.23;;;;;;;0.50;73.91;101373.09;10280377;28;20051;-60
2024/01/19 19:15:44;;;;;;;21.83;9.68;;;;;;;0.63;74.00;101372.41;10278650;28;20054;-59
2024/01/19 19:20:45;;;;;;;25.10;10.05;;;;;;;0.79;73.61;101373.25;10277048;28;20093;-62
2024/01/19 19:25:47;;;;;;;25.10;9.40;;;;;;;0.91;72.90;101377.84;10279778;28;20502;-62
2024/01/19 19:30:49;;;;;;;29.45;10.15;;;;;;;0.92;72.66;101389.28;10276116;28;20054;-62
2024/01/19 19:35:50;;;;;;;25.02;10.15;;;;;;;1.01;72.97;101398.47;10277888;28;20141;-61
2024/01/19 19:40:52;;;;;;;28.88;9.85;;;;;;;1.11;72.62;101405.81;10280268;28;20051;-61
2024/01/19 19:45:53;;;;;;;29.15;11.30;;;;;;;1.20;73.06;101409.72;10276884;28;20134;-61
2024/01/19 19:50:58;;;;;;;25.42;9.65;;;;;;;1.28;72.77;101414.56;10257898;28;20058;-61
2024/01/19 19:55:59;;;;;;;31.88;10.43;;;;;;;1.30;73.84;101412.69;10277657;28;20473;-61
2024/01/19 20:01:01;;;;;;;24.25;8.98;;;;;;;1.41;73.10;101420.84;10275455;28;20051;-61
2024/01/19 20:06:03;;;;;;;23.23;9.90;;;;;;;1.45;73.42;101426.84;10276024;28;20058;-60
2024/01/19 20:11:05;;;;;;;26.52;10.50;;;;;;;1.49;72.99;101423.06;10275188;28;20043;-61
2024/01/19 20:16:08;;;;;;;30.88;11.70;;;;;;;1.46;74.00;101421.44;10276756;28;20059;-61
2024/01/19 20:21:10;;;;;;;26.80;10.15;;;;;;;1.47;73.77;101420.50;10274001;28;20129;-61
2024/01/19 20:26:14;;;;;;;21.38;9.35;;;;;;;1.34;74.16;101420.38;10274109;28;20050;-61
2024/01/19 20:31:19;;;;;;;26.17;9.15;;;;;;;1.27;73.63;101426.13;10276843;28;20062;-61
2024/01/19 20:36:20;;;;;;;24.88;10.00;;;;;;;1.21;74.10;101434.41;10273156;28;20242;-61
2024/01/19 20:41:22;;;;;;;25.35;10.25;;;;;;;1.17;74.45;101431.94;10273966;28;20065;-61
2024/01/19 20:46:23;;;;;;;26.38;10.20;;;;;;;1.17;74.35;101428.44;10274622;28;20055;-61
2024/01/19 20:51:25;;;;;;;27.77;9.75;;;;;;;1.10;74.10;101429.72;10273897;28;20042;-62
2024/01/19 20:56:30;;;;;;;24.65;9.15;;;;;;;1.06;74.27;101429.03;10274775;28;20133;-62
2024/01/19 21:01:31;;;;;;;27.15;10.43;;;;;;;1.02;73.46;101434.63;10274741;28;20554;-63
2024/01/19 21:06:33;;;;;;;27.30;9.70;;;;;;;0.90;73.85;101444.94;10274132;28;20425;-62
2024/01/19 21:11:35;;;;;;;28.85;10.75;;;;;;;0.84;73.32;101439.16;10273466;28;20514;-62
2024/01/19 21:16:37;;;;;;;29.67;10.70;;;;;;;0.77;73.61;101447.44;10275035;28;20134;-62
2024/01/19 21:21:38;;;;;;;25.50;9.20;;;;;;;0.69;73.63;101443.50;10267433;28;20135;-62
2024/01/19 21:26:40;;;;;;;24.30;9.90;;;;;;;0.62;74.11;101444.78;10272574;28;20508;-62
2024/01/19 21:31:44;;;;;;;28.08;9.65;;;;;;;0.47;73.19;101435.91;10278690;28;20393;-62
2024/01/19 21:36:46;;;;;;;25.42;10.10;;;;;;;0.40;73.41;101445.97;10278561;28;20050;-61
2024/01/19 21:41:48;;;;;;;29.15;9.85;;;;;;;0.31;73.87;101457.88;10276302;28;20410;-62
2024/01/19 21:46:50;;;;;;;29.42;11.07;;;;;;;0.32;74.01;101464.88;10273246;28;20246;-62
2024/01/19 21:51:52;;;;;;;29.35;11.15;;;;;;;0.35;74.24;101477.09;10280526;28;20050;-63
2024/01/19 21:56:53;;;;;;;34.85;10.55;;;;;;;0.32;74.10;101480.75;10280343;28;20057;-61
2024/01/19 22:01:55;;;;;;;28.45;10.98;;;;;;;0.18;75.00;101478.00;10261307;28;20051;-63
2024/01/19 22:06:57;;;;;;;35.00;11.63;;;;;;;0.06;75.11;101478.63;10284941;28;20050;-63
2024/01/19 22:11:58;;;;;;;28.00;11.57;;;;;;;-0.05;74.54;101471.25;10281086;28;20058;-62
2024/01/19 22:17:00;;;;;;;31.77;10.45;;;;;;;-0.13;74.65;101471.66;10283167;28;20145;-62
2024/01/19 22:22:02;;;;;;;31.88;10.75;;;;;;;-0.17;74.29;101482.47;10281985;28;20054;-63
2024/01/19 22:27:03;;;;;;;30.58;10.27;;;;;;;-0.32;74.20;101482.31;10281067;28;20055;-63
2024/01/19 22:32:05;;;;;;;32.05;10.07;;;;;;;-0.48;75.16;101498.06;10281066;28;20042;-62
2024/01/19 22:37:07;;;;;;;31.75;11.30;;;;;;;-0.58;75.22;101509.19;10284693;28;20062;-62
2024/01/19 22:42:09;;;;;;;32.72;11.05;;;;;;;-0.68;74.66;101514.91;10280417;28;20109;-63
2024/01/19 22:47:10;;;;;;;27.60;9.45;;;;;;;-0.78;74.82;101520.72;10277114;28;20042;-63
2024/01/19 22:52:12;;;;;;;35.00;11.68;;;;;;;-0.94;74.92;101531.16;10278505;28;20129;-63